Time;durP1;ratioP1;P1;durP2;ratioP2;P2;SDS_P1;SDS_P2;PMS_P1;PMS_P2;Temp;Humidity;BMP_temperature;BMP_pressure;BME280_temperature;BME280_humidity;BME280_pressure;Samples;Min_cycle;Max_cycle;Signal;HPM_P1;HPM_P2
2021/12/30 00:00:34;;;;;;;40.03;4.82;;;7.90;99.90;;;;;;5030602;28;20052;-76
2021/12/30 00:03:00;;;;;;;38.33;4.80;;;8.00;99.90;;;;;;5030131;28;20124;-74
2021/12/30 00:05:26;;;;;;;52.47;5.47;;;8.00;99.90;;;;;;5064801;28;20175;-74
2021/12/30 00:07:52;;;;;;;50.40;5.82;;;8.00;99.90;;;;;;5014228;28;1116043;-76
2021/12/30 00:10:18;;;;;;;45.45;4.70;;;7.90;99.90;;;;;;5032102;28;20037;-76
2021/12/30 00:12:43;;;;;;;56.85;6.13;;;8.10;99.90;;;;;;5039622;28;20083;-76
2021/12/30 00:15:10;;;;;;;45.10;4.90;;;7.90;99.90;;;;;;5045089;28;20448;-76
2021/12/30 00:17:36;;;;;;;48.78;5.80;;;7.80;99.90;;;;;;5041543;28;21904;-76
2021/12/30 00:20:06;;;;;;;41.40;5.68;;;7.80;99.90;;;;;;5032887;28;20032;-74
2021/12/30 00:22:32;;;;;;;54.17;6.43;;;7.80;99.90;;;;;;5047134;28;20132;-75
2021/12/30 00:24:58;;;;;;;54.45;6.65;;;7.90;99.90;;;;;;5017561;28;20040;-76
2021/12/30 00:27:24;;;;;;;56.40;6.40;;;7.90;99.90;;;;;;5032903;28;20041;-74
2021/12/30 00:29:50;;;;;;;54.92;6.68;;;7.80;99.90;;;;;;5051977;28;20569;-74
2021/12/30 00:32:16;;;;;;;52.88;6.25;;;7.80;99.90;;;;;;5034237;28;20041;-75
2021/12/30 00:34:42;;;;;;;43.15;5.50;;;7.90;99.90;;;;;;5034265;28;20179;-75
2021/12/30 00:37:07;;;;;;;54.53;6.65;;;8.00;99.90;;;;;;5036445;28;20151;-75
2021/12/30 00:39:33;;;;;;;52.40;6.43;;;7.90;99.90;;;;;;5022325;28;20051;-76
2021/12/30 00:41:59;;;;;;;60.13;6.80;;;7.90;99.90;;;;;;5039638;28;20040;-76
2021/12/30 00:44:25;;;;;;;63.15;6.43;;;7.90;99.90;;;;;;5050624;28;20082;-74
2021/12/30 00:46:51;;;;;;;48.78;6.35;;;7.90;99.90;;;;;;5039205;28;20067;-74
2021/12/30 00:49:17;;;;;;;68.43;6.60;;;7.90;99.90;;;;;;5046812;28;20045;-75
2021/12/30 00:51:43;;;;;;;51.90;6.65;;;7.90;99.90;;;;;;5037239;28;20036;-74
2021/12/30 00:54:09;;;;;;;66.25;7.05;;;7.90;99.90;;;;;;5028488;28;20581;-76
2021/12/30 00:56:34;;;;;;;56.25;7.07;;;7.90;99.90;;;;;;5061273;28;20171;-75
2021/12/30 00:59:00;;;;;;;60.13;6.53;;;7.90;99.90;;;;;;5060773;28;20025;-75
2021/12/30 01:01:26;;;;;;;65.03;7.38;;;7.90;99.90;;;;;;5041267;28;20488;-75
2021/12/30 01:03:52;;;;;;;63.03;7.43;;;7.90;99.90;;;;;;5043775;28;20051;-76
2021/12/30 01:06:18;;;;;;;59.20;7.15;;;7.90;99.90;;;;;;5059661;28;20040;-76
2021/12/30 01:08:44;;;;;;;69.22;7.93;;;7.80;99.90;;;;;;5033702;28;20052;-76
2021/12/30 01:11:11;;;;;;;62.40;7.57;;;7.80;99.90;;;;;;5019470;28;20127;-74
2021/12/30 01:13:40;;;;;;;73.20;7.63;;;7.70;99.90;;;;;;5035356;28;20061;-76
2021/12/30 01:16:16;;;;;;;66.60;7.60;;;7.60;99.90;;;;;;5026339;28;20028;-75
2021/12/30 01:19:15;;;;;;;66.05;7.68;;;7.70;99.90;;;;;;5024609;28;20433;-74
2021/12/30 01:21:34;;;;;;;69.68;7.78;;;7.60;99.90;;;;;;5049561;28;20142;-74
2021/12/30 01:24:02;;;;;;;70.55;8.23;;;7.60;99.90;;;;;;5022541;28;20041;-75
2021/12/30 01:26:27;;;;;;;69.07;6.93;;;7.50;99.90;;;;;;5022546;28;20375;-74
2021/12/30 01:28:54;;;;;;;74.97;8.15;;;7.40;99.90;;;;;;5029416;28;20059;-76
2021/12/30 01:31:19;;;;;;;68.45;8.23;;;7.40;99.90;;;;;;5030529;28;20040;-74
2021/12/30 01:33:47;;;;;;;70.22;7.85;;;7.40;99.90;;;;;;5064661;28;20364;-75
2021/12/30 01:36:14;;;;;;;62.90;7.68;;;7.50;99.90;;;;;;5028216;28;20111;-75
2021/12/30 01:38:40;;;;;;;77.38;8.25;;;7.40;99.90;;;;;;5021287;28;20456;-75
2021/12/30 01:41:07;;;;;;;75.43;8.43;;;7.50;99.90;;;;;;5036689;28;20128;-74
2021/12/30 01:43:35;;;;;;;73.35;8.73;;;7.50;99.90;;;;;;5042571;28;20041;-76
2021/12/30 01:46:01;;;;;;;69.82;8.38;;;7.40;99.90;;;;;;5040941;28;20582;-76
2021/12/30 01:48:27;;;;;;;75.60;7.93;;;7.40;99.90;;;;;;5039537;28;20056;-76
2021/12/30 01:50:53;;;;;;;55.25;7.15;;;7.40;99.90;;;;;;5031357;28;20036;-75
2021/12/30 01:53:18;;;;;;;70.03;8.73;;;7.30;99.90;;;;;;5017039;28;20130;-75
2021/12/30 01:55:46;;;;;;;69.53;7.97;;;7.40;99.90;;;;;;5059859;28;20134;-75
2021/12/30 01:58:12;;;;;;;66.80;7.75;;;7.40;99.90;;;;;;5037223;28;20467;-76
2021/12/30 02:00:43;;;;;;;82.05;8.75;;;7.40;99.90;;;;;;5031441;28;20041;-75
2021/12/30 02:03:09;;;;;;;68.80;8.10;;;7.40;99.90;;;;;;5049156;28;20051;-74
2021/12/30 02:05:37;;;;;;;64.30;7.95;;;7.40;99.90;;;;;;5038301;28;20404;-76
2021/12/30 02:08:04;;;;;;;59.92;7.32;;;7.40;99.90;;;;;;5018358;28;20033;-75
2021/12/30 02:10:30;;;;;;;48.30;6.80;;;7.40;99.90;;;;;;5039990;28;20045;-76
2021/12/30 02:12:56;;;;;;;73.70;7.25;;;7.40;99.90;;;;;;5031932;28;20033;-76
2021/12/30 02:15:21;;;;;;;64.10;7.95;;;7.40;99.90;;;;;;5039916;28;20037;-75
2021/12/30 02:17:49;;;;;;;72.32;7.55;;;7.40;99.90;;;;;;5065326;28;20033;-74
2021/12/30 02:20:41;;;;;;;72.85;7.55;;;7.40;99.90;;;;;;5033122;28;20051;-76
2021/12/30 02:23:08;;;;;;;76.35;8.57;;;7.40;99.90;;;;;;5039443;28;20137;-75
2021/12/30 02:25:34;;;;;;;62.45;7.22;;;7.40;99.90;;;;;;5034959;28;20044;-76
2021/12/30 02:27:59;;;;;;;50.97;7.18;;;7.40;99.90;;;;;;5041675;28;20035;-74
2021/12/30 02:30:25;;;;;;;64.43;7.55;;;7.40;99.90;;;;;;5041172;28;20040;-76
2021/12/30 02:32:51;;;;;;;71.05;7.80;;;7.40;99.90;;;;;;5026951;28;20044;-77
2021/12/30 02:35:17;;;;;;;61.08;8.07;;;7.50;99.90;;;;;;5031728;28;20191;-75
2021/12/30 02:37:42;;;;;;;58.60;8.00;;;7.40;99.90;;;;;;5034621;28;20037;-77
2021/12/30 02:40:09;;;;;;;61.45;6.78;;;7.40;99.90;;;;;;5059218;28;20184;-76
2021/12/30 02:42:34;;;;;;;66.75;7.43;;;7.30;99.90;;;;;;5043484;28;20814;-76
2021/12/30 02:45:00;;;;;;;70.40;8.00;;;7.30;99.90;;;;;;5057660;28;20127;-76
2021/12/30 02:47:26;;;;;;;65.38;8.68;;;7.30;99.90;;;;;;5042646;28;20040;-76
2021/12/30 02:49:51;;;;;;;57.28;7.57;;;7.30;99.90;;;;;;5044828;28;20203;-76
2021/12/30 02:52:17;;;;;;;66.55;7.53;;;7.20;99.90;;;;;;5045379;28;20044;-75
2021/12/30 02:54:43;;;;;;;78.88;8.48;;;7.20;99.90;;;;;;5061289;28;20123;-76
2021/12/30 02:57:10;;;;;;;69.47;8.10;;;7.20;99.90;;;;;;5020067;28;20114;-75
2021/12/30 02:59:36;;;;;;;75.38;8.60;;;7.30;99.90;;;;;;5053148;28;20048;-74
2021/12/30 03:02:03;;;;;;;75.82;7.85;;;7.30;99.90;;;;;;5024218;28;20144;-76
2021/12/30 03:04:30;;;;;;;80.90;8.60;;;7.30;99.90;;;;;;5040314;28;20422;-75
2021/12/30 03:06:57;;;;;;;76.13;8.35;;;7.30;99.90;;;;;;5022870;28;20086;-76
2021/12/30 03:09:23;;;;;;;75.95;9.40;;;7.50;99.90;;;;;;5004615;28;20054;-75
2021/12/30 03:11:49;;;;;;;77.28;9.77;;;7.40;99.90;;;;;;4998903;28;20878;-74
2021/12/30 03:14:15;;;;;;;87.38;10.40;;;7.40;99.90;;;;;;5021283;28;20984;-75
2021/12/30 03:16:42;;;;;;;80.18;9.60;;;7.40;99.90;;;;;;5016171;28;20085;-75
2021/12/30 03:19:08;;;;;;;77.18;8.93;;;7.50;99.90;;;;;;4992232;28;20077;-75
2021/12/30 03:21:34;;;;;;;84.47;10.23;;;7.50;99.90;;;;;;5007403;28;20073;-74
2021/12/30 03:24:02;;;;;;;75.30;9.90;;;7.50;99.90;;;;;;5033311;28;20063;-76
2021/12/30 03:26:28;;;;;;;77.13;10.40;;;7.60;99.90;;;;;;5030194;28;20391;-74
2021/12/30 03:28:54;;;;;;;84.00;11.18;;;7.60;99.90;;;;;;5016772;28;20053;-75
2021/12/30 03:31:21;;;;;;;77.78;11.30;;;7.70;99.90;;;;;;5011001;28;20037;-75
2021/12/30 03:33:49;;;;;;;77.80;11.55;;;7.80;99.90;;;;;;5007126;28;20042;-74
2021/12/30 03:36:16;;;;;;;93.22;12.88;;;7.80;99.90;;;;;;5005605;28;20043;-76
2021/12/30 03:38:46;;;;;;;93.75;12.40;;;7.90;99.90;;;;;;4997826;28;20049;-74
2021/12/30 03:41:15;;;;;;;87.60;13.63;;;7.90;99.90;;;;;;5040173;28;20037;-76
2021/12/30 03:43:41;;;;;;;93.28;14.25;;;7.90;99.90;;;;;;5030133;28;20136;-77
2021/12/30 03:46:08;;;;;;;91.70;13.45;;;7.90;99.90;;;;;;5026099;28;20199;-76
2021/12/30 03:48:39;;;;;;;81.90;11.95;;;7.90;99.90;;;;;;5042506;28;20045;-75
2021/12/30 03:51:08;;;;;;;85.93;13.38;;;7.90;99.90;;;;;;5031668;28;20053;-75
2021/12/30 03:53:38;;;;;;;90.88;13.68;;;7.90;99.90;;;;;;5027235;28;20049;-75
2021/12/30 03:56:13;;;;;;;93.10;15.35;;;7.90;99.90;;;;;;5023954;28;20068;-76
2021/12/30 03:58:41;;;;;;;85.57;14.25;;;7.90;99.90;;;;;;5006750;28;20053;-75
2021/12/30 04:01:09;;;;;;;85.00;15.45;;;8.00;99.90;;;;;;5020958;28;20155;-75
2021/12/30 04:03:35;;;;;;;96.90;15.95;;;8.00;99.90;;;;;;5022499;28;20038;-76
2021/12/30 04:06:00;;;;;;;88.90;15.63;;;8.00;99.90;;;;;;5023084;28;20063;-75
2021/12/30 04:08:26;;;;;;;103.05;15.73;;;8.10;99.90;;;;;;5028142;28;20144;-76
2021/12/30 04:10:52;;;;;;;106.22;16.20;;;8.20;99.90;;;;;;5014251;28;20048;-75
2021/12/30 04:13:18;;;;;;;94.60;15.15;;;8.10;99.90;;;;;;5044241;28;20044;-75
2021/12/30 04:15:44;;;;;;;92.88;14.50;;;8.20;99.90;;;;;;5023941;28;20044;-74
2021/12/30 04:18:09;;;;;;;84.53;13.90;;;8.20;99.90;;;;;;5029284;28;20025;-76
2021/12/30 04:20:35;;;;;;;86.47;13.48;;;8.20;99.90;;;;;;5014193;28;20041;-75
2021/12/30 04:23:01;;;;;;;91.72;12.43;;;8.20;99.90;;;;;;5021326;28;20416;-74
2021/12/30 04:25:26;;;;;;;77.32;12.25;;;8.40;99.90;;;;;;5041108;28;20181;-75
2021/12/30 04:27:52;;;;;;;85.85;12.60;;;8.40;99.90;;;;;;5041584;28;20049;-76
2021/12/30 04:30:18;;;;;;;81.60;11.98;;;8.50;99.90;;;;;;5006010;28;20064;-75
2021/12/30 04:32:44;;;;;;;94.72;13.23;;;8.50;99.90;;;;;;5024596;28;20409;-74
2021/12/30 04:35:12;;;;;;;91.05;13.02;;;8.60;99.90;;;;;;5001711;28;20045;-76
2021/12/30 04:37:38;;;;;;;86.95;13.63;;;8.60;99.90;;;;;;5026635;28;20516;-74
2021/12/30 04:40:06;;;;;;;100.72;13.27;;;8.60;99.90;;;;;;5021483;28;20067;-74
2021/12/30 04:42:32;;;;;;;88.10;12.52;;;8.60;99.90;;;;;;5046252;28;20128;-76
2021/12/30 04:44:57;;;;;;;93.30;13.20;;;8.80;99.90;;;;;;5026131;28;20112;-75
2021/12/30 04:47:23;;;;;;;88.03;12.73;;;8.70;99.90;;;;;;5042507;28;20044;-75
2021/12/30 04:49:49;;;;;;;87.57;12.57;;;8.70;99.90;;;;;;5031986;28;20029;-75
2021/12/30 04:52:15;;;;;;;77.45;12.60;;;8.70;99.90;;;;;;5026811;28;20053;-74
2021/12/30 04:54:41;;;;;;;106.28;14.15;;;8.70;99.90;;;;;;5032380;28;20504;-75
2021/12/30 04:57:06;;;;;;;99.43;14.63;;;8.70;99.90;;;;;;5027687;28;20067;-74
2021/12/30 04:59:32;;;;;;;108.40;15.98;;;8.80;99.90;;;;;;5012634;28;20049;-74
2021/12/30 05:01:58;;;;;;;102.63;15.65;;;8.80;99.90;;;;;;5026080;28;20060;-76
2021/12/30 05:04:24;;;;;;;87.60;13.73;;;8.90;99.90;;;;;;5027541;28;20072;-76
2021/12/30 05:06:50;;;;;;;113.25;17.50;;;8.90;99.90;;;;;;5014561;28;20099;-77
2021/12/30 05:09:16;;;;;;;103.13;16.48;;;9.10;99.90;;;;;;5040325;28;20061;-76
2021/12/30 05:11:42;;;;;;;102.22;17.50;;;9.10;99.90;;;;;;5024710;28;20049;-76
2021/12/30 05:14:12;;;;;;;112.30;17.60;;;9.10;99.90;;;;;;5006236;28;20127;-75
2021/12/30 05:16:38;;;;;;;119.97;17.70;;;9.20;99.90;;;;;;5033555;28;20064;-75
2021/12/30 05:19:04;;;;;;;124.20;19.05;;;9.20;99.90;;;;;;5040782;28;20033;-74
2021/12/30 05:21:31;;;;;;;102.65;18.17;;;9.30;99.90;;;;;;5017009;28;20503;-74
2021/12/30 05:23:56;;;;;;;135.18;22.38;;;9.50;99.90;;;;;;5031948;28;20037;-75
2021/12/30 05:26:27;;;;;;;103.55;19.55;;;9.60;99.90;;;;;;5048422;28;20048;-74
2021/12/30 05:28:53;;;;;;;130.18;23.35;;;9.60;99.90;;;;;;5015757;28;20070;-76
2021/12/30 05:31:19;;;;;;;129.55;23.63;;;9.60;99.90;;;;;;5014639;28;20044;-76
2021/12/30 05:33:45;;;;;;;130.18;24.38;;;9.70;99.90;;;;;;5032200;28;20037;-76
2021/12/30 05:36:10;;;;;;;145.38;25.20;;;9.60;99.90;;;;;;5031456;28;20041;-75
2021/12/30 05:38:36;;;;;;;133.38;24.02;;;9.70;99.90;;;;;;5048394;28;20047;-75
2021/12/30 05:41:02;;;;;;;123.55;25.63;;;9.80;99.90;;;;;;5042846;28;20400;-75
2021/12/30 05:43:28;;;;;;;107.75;23.52;;;9.80;99.90;;;;;;5026828;28;20052;-75
2021/12/30 05:45:53;;;;;;;123.05;25.25;;;9.90;99.90;;;;;;5028241;28;20407;-76
2021/12/30 05:48:19;;;;;;;96.93;21.00;;;10.00;99.90;;;;;;5059909;28;20493;-74
2021/12/30 05:50:44;;;;;;;96.22;22.63;;;10.00;99.90;;;;;;5059240;28;20074;-78
2021/12/30 05:53:10;;;;;;;84.60;20.60;;;10.00;99.90;;;;;;5059118;28;20032;-77
2021/12/30 05:55:36;;;;;;;72.70;18.75;;;9.90;99.90;;;;;;5059318;28;20039;-75
2021/12/30 05:58:01;;;;;;;66.72;17.40;;;10.00;99.90;;;;;;5026473;28;20052;-75
2021/12/30 06:00:29;;;;;;;58.22;17.17;;;10.00;99.90;;;;;;5059212;28;20033;-76
2021/12/30 06:02:55;;;;;;;61.85;16.92;;;10.00;99.90;;;;;;5050011;28;20046;-75
2021/12/30 06:05:21;;;;;;;52.45;16.27;;;10.00;99.90;;;;;;5030223;28;20485;-76
2021/12/30 06:07:46;;;;;;;46.83;15.18;;;10.10;99.90;;;;;;5058203;28;20032;-74
2021/12/30 06:10:12;;;;;;;52.55;15.68;;;10.10;99.90;;;;;;5048395;28;20149;-76
2021/12/30 06:12:39;;;;;;;51.78;15.15;;;10.10;99.90;;;;;;5036691;28;20041;-75
2021/12/30 06:15:05;;;;;;;55.72;15.27;;;10.20;99.90;;;;;;5049970;28;20049;-77
2021/12/30 06:17:31;;;;;;;49.83;15.38;;;10.10;99.90;;;;;;5043280;28;20037;-75
2021/12/30 06:19:57;;;;;;;47.58;15.73;;;10.30;99.90;;;;;;5044153;28;20116;-77
2021/12/30 06:22:22;;;;;;;51.33;15.85;;;10.20;99.90;;;;;;5060257;28;20043;-75
2021/12/30 06:24:48;;;;;;;52.03;17.05;;;10.20;99.90;;;;;;5061539;28;20079;-77
2021/12/30 06:27:14;;;;;;;54.80;16.65;;;10.20;99.90;;;;;;5046005;28;20060;-74
2021/12/30 06:29:40;;;;;;;61.00;17.65;;;10.30;99.90;;;;;;5031573;28;20037;-76
2021/12/30 06:32:06;;;;;;;58.15;17.17;;;10.30;99.90;;;;;;5028598;28;20055;-75
2021/12/30 06:34:33;;;;;;;69.53;19.42;;;10.30;99.90;;;;;;5029303;28;20048;-75
2021/12/30 06:36:59;;;;;;;74.78;19.63;;;10.30;99.90;;;;;;5042055;28;20408;-76
2021/12/30 06:39:25;;;;;;;87.72;20.48;;;10.50;99.90;;;;;;5045696;28;20044;-78
2021/12/30 06:41:51;;;;;;;90.43;21.58;;;10.30;99.90;;;;;;5045315;28;20040;-74
2021/12/30 06:44:16;;;;;;;103.43;22.33;;;10.40;99.90;;;;;;5031539;28;20513;-77
2021/12/30 06:46:56;;;;;;;74.45;19.10;;;10.40;99.90;;;;;;5041833;28;20041;-74
2021/12/30 06:49:22;;;;;;;106.85;23.02;;;10.40;99.90;;;;;;5044756;28;20126;-75
2021/12/30 06:51:48;;;;;;;86.57;20.83;;;10.40;99.90;;;;;;5044755;28;20036;-75
2021/12/30 06:54:14;;;;;;;97.45;21.05;;;10.50;99.90;;;;;;5038988;28;20553;-76
2021/12/30 06:56:39;;;;;;;106.82;23.13;;;10.50;99.90;;;;;;5044498;28;20044;-79
2021/12/30 06:59:05;;;;;;;96.93;21.85;;;10.60;99.90;;;;;;5040774;28;20463;-79
2021/12/30 07:01:34;;;;;;;100.28;21.17;;;10.40;99.90;;;;;;5063291;28;20378;-75
2021/12/30 07:03:59;;;;;;;100.55;20.25;;;10.50;99.90;;;;;;5064954;28;20029;-76
2021/12/30 07:06:25;;;;;;;72.35;18.88;;;10.50;99.90;;;;;;5068286;28;20066;-73
2021/12/30 07:08:51;;;;;;;75.18;18.30;;;10.50;99.90;;;;;;5038424;28;20049;-75
2021/12/30 07:11:16;;;;;;;73.55;17.85;;;10.50;99.90;;;;;;5032602;28;20041;-78
2021/12/30 07:13:42;;;;;;;68.25;18.02;;;10.50;99.90;;;;;;5042626;28;20032;-73
2021/12/30 07:16:08;;;;;;;65.55;15.63;;;10.60;99.90;;;;;;5018973;28;20044;-77
2021/12/30 07:18:34;;;;;;;58.17;16.10;;;10.60;99.90;;;;;;5017660;28;20048;-75
2021/12/30 07:20:59;;;;;;;51.88;15.25;;;10.60;99.90;;;;;;5034909;28;20060;-75
2021/12/30 07:23:25;;;;;;;54.80;16.00;;;10.60;99.90;;;;;;5034200;28;20120;-74
2021/12/30 07:25:52;;;;;;;59.10;16.83;;;10.60;99.90;;;;;;5017917;28;20039;-76
2021/12/30 07:28:18;;;;;;;49.13;14.10;;;10.60;99.90;;;;;;5032973;28;20380;-76
2021/12/30 07:30:44;;;;;;;54.47;14.88;;;10.70;99.90;;;;;;5011334;28;20045;-75
2021/12/30 07:33:09;;;;;;;46.38;13.93;;;10.70;99.90;;;;;;5021097;28;20088;-77
2021/12/30 07:35:35;;;;;;;41.95;12.45;;;10.60;99.90;;;;;;5038649;28;20040;-78
2021/12/30 07:38:02;;;;;;;42.72;13.30;;;10.60;99.90;;;;;;5016335;28;20458;-77
2021/12/30 07:40:28;;;;;;;39.25;13.48;;;10.70;99.90;;;;;;5033325;28;20087;-74
2021/12/30 07:42:54;;;;;;;43.00;13.75;;;10.70;99.90;;;;;;5031227;28;20151;-79
2021/12/30 07:45:20;;;;;;;44.17;13.30;;;10.70;99.90;;;;;;5027373;28;20142;-78
2021/12/30 07:47:46;;;;;;;36.72;12.43;;;10.70;99.90;;;;;;5039176;28;20053;-77
2021/12/30 07:50:12;;;;;;;38.50;12.30;;;10.80;99.90;;;;;;5038249;28;20444;-75
2021/12/30 07:52:39;;;;;;;35.90;11.98;;;10.70;99.90;;;;;;5034245;28;20128;-75
2021/12/30 07:55:09;;;;;;;32.70;12.63;;;10.70;99.90;;;;;;5036211;28;20556;-78
2021/12/30 07:57:35;;;;;;;34.92;12.48;;;10.80;99.90;;;;;;5038984;28;20049;-78
2021/12/30 08:00:03;;;;;;;29.38;12.38;;;10.80;99.90;;;;;;5035189;28;20048;-76
2021/12/30 08:02:28;;;;;;;32.95;14.00;;;10.80;99.90;;;;;;5036070;28;20084;-77
2021/12/30 08:04:54;;;;;;;27.17;12.18;;;10.80;99.90;;;;;;5036792;28;20056;-75
2021/12/30 08:07:22;;;;;;;23.75;12.00;;;10.80;99.90;;;;;;5021268;28;20082;-78
2021/12/30 08:09:48;;;;;;;21.73;10.25;;;10.80;99.90;;;;;;5038558;28;20060;-75
2021/12/30 08:12:14;;;;;;;24.88;9.68;;;10.90;99.90;;;;;;5034051;28;20040;-81
2021/12/30 08:14:40;;;;;;;17.20;9.23;;;10.90;99.90;;;;;;5032291;28;21766;-81
2021/12/30 08:17:06;;;;;;;16.77;8.40;;;10.90;99.90;;;;;;5020538;28;20484;-81
2021/12/30 08:19:31;;;;;;;13.30;7.22;;;10.90;99.90;;;;;;5033086;28;20469;-81
2021/12/30 08:21:57;;;;;;;15.38;7.35;;;11.10;99.90;;;;;;5031756;28;20057;-79
2021/12/30 08:24:24;;;;;;;12.85;6.82;;;11.00;99.90;;;;;;5016480;28;20090;-82
2021/12/30 08:26:50;;;;;;;13.63;6.95;;;11.00;99.90;;;;;;5036796;28;20404;-84
2021/12/30 08:29:16;;;;;;;12.07;6.68;;;11.00;99.90;;;;;;5052883;28;20052;-81
2021/12/30 08:31:41;;;;;;;12.32;6.63;;;11.00;99.90;;;;;;5052819;28;20503;-82
2021/12/30 08:34:08;;;;;;;15.02;6.10;;;11.00;99.90;;;;;;5016011;28;20408;-79
2021/12/30 08:36:34;;;;;;;11.35;5.88;;;11.10;99.90;;;;;;5026572;28;20097;-78
2021/12/30 08:39:03;;;;;;;12.57;6.18;;;11.10;99.90;;;;;;5030135;28;20142;-83
2021/12/30 08:41:28;;;;;;;10.80;5.30;;;11.10;99.90;;;;;;5041933;28;20033;-81
2021/12/30 08:43:54;;;;;;;11.57;5.63;;;11.20;99.90;;;;;;5033484;28;20049;-83
2021/12/30 08:46:20;;;;;;;10.10;5.85;;;11.30;99.90;;;;;;5016441;28;20103;-81
2021/12/30 08:48:46;;;;;;;14.65;6.30;;;11.30;99.90;;;;;;5030624;28;20040;-86
2021/12/30 08:51:11;;;;;;;14.18;6.38;;;11.30;99.90;;;;;;5032941;28;20079;-81
2021/12/30 08:53:40;;;;;;;19.55;7.80;;;11.30;99.90;;;;;;5021212;28;20467;-83
2021/12/30 08:56:08;;;;;;;20.23;7.43;;;11.30;99.90;;;;;;5032682;28;20103;-82
2021/12/30 08:58:35;;;;;;;15.00;6.88;;;11.30;99.90;;;;;;5030916;28;20200;-82
2021/12/30 09:01:01;;;;;;;17.95;6.95;;;11.30;99.90;;;;;;5032492;28;20050;-82
2021/12/30 09:03:27;;;;;;;17.23;6.53;;;11.30;99.90;;;;;;5020844;28;20125;-84
2021/12/30 09:06:00;;;;;;;18.27;5.60;;;11.40;99.90;;;;;;5031199;28;20037;-84
2021/12/30 09:08:26;;;;;;;20.55;6.30;;;10.90;99.90;;;;;;5010907;28;20141;-81
2021/12/30 09:10:56;;;;;;;22.92;5.43;;;11.30;99.90;;;;;;5049766;28;20163;-82
2021/12/30 09:13:24;;;;;;;19.15;6.30;;;11.30;99.90;;;;;;5018175;28;20052;-82
2021/12/30 09:15:50;;;;;;;18.52;5.75;;;11.30;99.90;;;;;;5015649;28;20074;-81
2021/12/30 09:18:16;;;;;;;23.27;6.57;;;11.30;99.90;;;;;;5010873;28;20049;-82
2021/12/30 09:20:43;;;;;;;27.30;6.72;;;11.30;99.90;;;;;;5049712;28;20353;-82
2021/12/30 09:23:11;;;;;;;29.73;7.47;;;11.30;99.90;;;;;;5048840;28;20105;-80
2021/12/30 09:25:38;;;;;;;28.38;6.55;;;11.50;99.90;;;;;;5031307;28;20032;-83
2021/12/30 09:28:14;;;;;;;24.75;6.82;;;11.20;99.90;;;;;;5047064;28;20539;-82
2021/12/30 09:31:01;;;;;;;28.63;6.55;;;11.30;99.90;;;;;;5016050;28;20087;-82
2021/12/30 09:33:27;;;;;;;31.83;6.57;;;11.30;99.90;;;;;;5033024;28;20045;-84
2021/12/30 09:35:52;;;;;;;19.98;5.50;;;11.30;99.90;;;;;;5018585;28;20044;-82
2021/12/30 09:38:19;;;;;;;22.90;6.18;;;11.30;99.90;;;;;;5033525;28;20115;-82
2021/12/30 09:40:45;;;;;;;22.50;5.47;;;11.80;99.90;;;;;;5021180;28;20037;-83
2021/12/30 09:43:17;;;;;;;24.85;5.28;;;11.30;99.90;;;;;;5014616;28;20493;-82
2021/12/30 09:45:43;;;;;;;27.48;6.03;;;11.30;99.90;;;;;;5014104;28;20131;-84
2021/12/30 09:48:13;;;;;;;30.50;6.10;;;11.30;99.90;;;;;;5037064;28;20120;-82
2021/12/30 09:50:49;;;;;;;22.38;6.00;;;11.30;99.90;;;;;;5033564;28;20041;-81
2021/12/30 09:53:18;;;;;;;24.35;5.68;;;11.30;99.90;;;;;;5048996;28;20250;-80
2021/12/30 09:55:44;;;;;;;31.08;6.70;;;11.40;99.90;;;;;;5023234;28;20057;-80
2021/12/30 09:58:10;;;;;;;31.08;7.28;;;11.40;99.90;;;;;;5037937;28;20048;-83
2021/12/30 10:00:37;;;;;;;25.55;6.35;;;11.40;99.90;;;;;;5034223;28;20400;-82
2021/12/30 10:03:03;;;;;;;31.35;6.47;;;11.40;99.90;;;;;;5018740;28;20045;-84
2021/12/30 10:05:32;;;;;;;28.50;6.20;;;11.40;99.90;;;;;;5037387;28;20055;-82
2021/12/30 10:08:18;;;;;;;24.73;5.63;;;11.50;99.90;;;;;;5032384;28;20083;-84
2021/12/30 10:10:47;;;;;;;29.45;6.28;;;11.40;99.90;;;;;;4995548;28;20415;-83
2021/12/30 10:13:20;;;;;;;39.13;6.68;;;11.40;99.90;;;;;;5010671;28;20052;-85
2021/12/30 10:16:12;;;;;;;31.95;6.47;;;11.40;99.90;;;;;;4985236;28;20054;-83
2021/12/30 10:18:52;;;;;;;33.25;5.68;;;11.40;99.90;;;;;;5023682;28;20057;-82
2021/12/30 10:21:24;;;;;;;35.97;5.72;;;11.40;99.90;;;;;;4999998;28;20185;-82
2021/12/30 10:23:55;;;;;;;35.85;6.50;;;11.40;99.90;;;;;;5028509;28;20397;-81
2021/12/30 10:26:21;;;;;;;40.55;7.03;;;11.50;99.90;;;;;;5013379;28;20501;-82
2021/12/30 10:28:54;;;;;;;34.40;5.65;;;11.40;99.90;;;;;;5017269;28;20057;-81
2021/12/30 10:31:25;;;;;;;40.55;6.60;;;11.40;99.90;;;;;;5027340;28;20131;-83
2021/12/30 10:33:53;;;;;;;37.63;7.28;;;11.40;99.90;;;;;;5025365;28;20059;-79
2021/12/30 10:36:21;;;;;;;35.45;7.10;;;11.40;99.90;;;;;;5017030;28;20085;-83
2021/12/30 10:38:47;;;;;;;36.35;7.05;;;11.30;99.90;;;;;;4998493;28;20053;-80
2021/12/30 10:41:13;;;;;;;35.03;7.40;;;11.40;99.90;;;;;;5014058;28;20064;-83
2021/12/30 10:43:46;;;;;;;36.90;6.60;;;11.40;99.90;;;;;;4992910;28;22100;-83
2021/12/30 10:46:26;;;;;;;34.15;7.32;;;11.70;99.90;;;;;;5010133;28;20065;-82
2021/12/30 10:48:59;;;;;;;33.17;7.57;;;11.60;99.90;;;;;;5031613;28;20057;-80
2021/12/30 10:51:44;;;;;;;35.28;6.50;;;11.30;99.90;;;;;;5034608;28;20049;-80
2021/12/30 10:54:14;;;;;;;41.67;6.68;;;11.40;99.90;;;;;;5054269;28;20127;-80
2021/12/30 10:57:13;;;;;;;41.42;6.97;;;11.40;99.90;;;;;;5007828;28;20060;-80
2021/12/30 10:59:44;;;;;;;40.13;7.63;;;11.40;99.90;;;;;;4990489;28;20042;-80
2021/12/30 11:02:15;;;;;;;43.67;7.00;;;11.40;99.90;;;;;;5007983;28;20046;-80
2021/12/30 11:04:47;;;;;;;33.95;6.40;;;11.60;99.90;;;;;;4966386;28;20077;-81
2021/12/30 11:07:16;;;;;;;36.83;6.10;;;11.40;99.90;;;;;;4968142;28;20430;-80
2021/12/30 11:09:48;;;;;;;41.28;6.93;;;11.50;99.90;;;;;;4976052;28;20092;-81
2021/12/30 11:12:14;;;;;;;51.78;7.15;;;11.50;99.90;;;;;;4983876;28;20108;-79
2021/12/30 11:14:40;;;;;;;56.53;8.02;;;11.40;99.90;;;;;;5005974;28;20046;-81
2021/12/30 11:17:33;;;;;;;41.97;7.55;;;11.40;99.90;;;;;;4982003;28;20049;-82
2021/12/30 11:20:02;;;;;;;36.40;7.45;;;11.70;99.90;;;;;;4984414;28;20038;-84
2021/12/30 11:22:31;;;;;;;52.70;7.97;;;11.40;99.90;;;;;;4990665;28;20058;-81
2021/12/30 11:25:03;;;;;;;55.53;8.35;;;11.40;99.90;;;;;;4981549;28;20042;-84
2021/12/30 11:27:30;;;;;;;47.42;8.75;;;11.40;99.90;;;;;;4978213;28;20046;-82
2021/12/30 11:30:15;;;;;;;45.10;8.10;;;11.50;99.90;;;;;;4993550;28;20082;-82
2021/12/30 11:32:43;;;;;;;50.50;7.68;;;11.40;99.90;;;;;;4986935;28;20038;-82
2021/12/30 11:35:09;;;;;;;62.92;8.85;;;11.40;99.90;;;;;;4979843;28;20053;-85
2021/12/30 11:37:36;;;;;;;58.05;9.32;;;11.30;99.90;;;;;;5018932;28;20064;-84
2021/12/30 11:40:09;;;;;;;69.05;8.80;;;11.40;99.90;;;;;;5039298;28;20132;-84
2021/12/30 11:42:43;;;;;;;54.60;8.93;;;11.40;99.90;;;;;;5036325;28;20041;-83
2021/12/30 11:45:35;;;;;;;64.60;10.25;;;11.50;99.90;;;;;;5058698;28;20052;-81
2021/12/30 11:48:20;;;;;;;71.20;9.40;;;11.40;99.90;;;;;;5028199;28;20052;-81
2021/12/30 11:50:46;;;;;;;;;;;11.50;99.90;;;;;;5046058;28;20045;-84
2021/12/30 11:53:24;;;;;;;65.75;8.30;;;11.50;99.90;;;;;;5035602;28;19951;-84
2021/12/30 11:55:50;;;;;;;62.33;9.10;;;11.50;99.90;;;;;;5017092;28;20064;-82
2021/12/30 11:58:40;;;;;;;63.50;9.43;;;11.50;99.90;;;;;;5018331;28;20057;-82
2021/12/30 12:01:29;;;;;;;56.30;8.68;;;11.50;99.90;;;;;;5025884;28;20128;-83
2021/12/30 12:04:06;;;;;;;50.97;8.93;;;11.50;99.90;;;;;;5035907;28;20041;-81
2021/12/30 12:06:36;;;;;;;56.75;7.63;;;11.50;99.90;;;;;;5051269;28;20437;-83
2021/12/30 12:09:13;;;;;;;60.90;8.70;;;11.50;99.90;;;;;;5041591;28;20049;-85
2021/12/30 12:11:42;;;;;;;57.22;8.60;;;11.40;99.90;;;;;;5022309;28;20041;-84
2021/12/30 12:14:26;;;;;;;53.15;7.40;;;11.50;99.90;;;;;;5034047;28;20041;-83
2021/12/30 12:17:00;;;;;;;74.13;8.60;;;11.60;99.90;;;;;;5033560;28;20041;-83
2021/12/30 12:19:38;;;;;;;58.60;8.60;;;11.60;99.90;;;;;;5051983;28;20041;-81
2021/12/30 12:22:08;;;;;;;61.63;8.15;;;11.70;99.90;;;;;;5037725;28;20036;-80
2021/12/30 12:24:37;;;;;;;57.17;7.90;;;11.70;99.90;;;;;;5047752;28;20116;-80
2021/12/30 12:27:31;;;;;;;68.80;8.82;;;11.70;99.90;;;;;;5017061;28;20076;-80
2021/12/30 12:30:00;;;;;;;50.50;7.15;;;11.70;99.90;;;;;;5015162;28;20702;-81
2021/12/30 12:32:34;;;;;;;66.82;7.95;;;11.70;99.90;;;;;;5006954;28;20083;-84
2021/12/30 12:35:21;;;;;;;48.22;7.95;;;11.70;99.90;;;;;;5017819;28;20475;-84
2021/12/30 12:37:59;;;;;;;60.13;8.43;;;11.70;99.90;;;;;;5021365;28;20437;-83
2021/12/30 12:40:27;;;;;;;55.75;7.75;;;11.70;99.90;;;;;;5049162;28;20482;-82